Telluride, CO (81435)

3:46 AM MDT on April 28, 2017 (GMT -0600)
Baked in Telluride, 127 S. Fir | | Change Station

Elev 8786 ft 37.94 °N, 107.81 °W | Updated 23 seconds ago

Overcast
Overcast
25.2 °F
Feels Like 25 °F
N
0.0
Wind Variable Wind from South
Gusts 1.0 mph

Today
High -- | Low -- °F
--% Chance of Precip.
Yesterday
High -- | Low -- °F
Precip. -- in
Pressure 29.78 in
Visibility 10.0 miles
Clouds Scattered Clouds 3900 ft
Scattered Clouds 6000 ft
Overcast 9000 ft
Windchill 25 °F
Dew Point 14 °F
Humidity 58%
Rainfall 0.00 in
Snow Depth Not available.
6:18 AM 7:59 PM
Waxing Crescent, 5% visible
METAR KTEX 280935Z AUTO 00000KT 10SM SCT039 SCT060 OVC090 M02/M11 A2978 RMK AO2 T10251115
Pressure 29.78 in
Visibility 10.0 miles
Clouds Scattered Clouds 3900 ft
Scattered Clouds 6000 ft
Overcast 9000 ft
Windchill 25 °F
Dew Point 14 °F
Humidity 58%
Rainfall 0.00 in
Snow Depth Not available.
6:18 AM 7:59 PM
Waxing Crescent, 5% visible
METAR KTEX 280935Z AUTO 00000KT 10SM SCT039 SCT060 OVC090 M02/M11 A2978 RMK AO2 T10251115

Get Severe Weather Alerts

Thanks for signing up!

Be on the lookout for a verification email in your inbox.

You'll start receiving the daily forecast at 8 AM.

×

10-Day Weather Forecast

Almanac

Astronomy

Apr. 28, 2017 Rise Set
Actual Time
Civil Twilight
Nautical Twilight
Astronomical Twilight
Moon
Length of Visible Light
Length of Day
Tomorrow will be .
, % of the Moon is Illuminated

Today's Extremes

State Highs State Lows

Community

WunderPhotos

WunderBlog® & News

Nearby

Air Quality

  Air Quality AQ Index Pollutant
Not available.

Snow Depth

Station Depth Elevation

Earthquake Activity

City Distance Mag. Time & Date
Minimum magnitude displayed is 2.5.

Coastal Water Temperatures

Place Temperature

Stations

Nearby Weather Stations

Station Location Temp. Windchill Dew Point Humidity Wind Precip. Elev Updated Type
                   

Watches & Warnings

There are currently no watches in effect.